sensor_id;sensor_type;location;lat;lon;timestamp;P1;durP1;ratioP1;P2;durP2;ratioP2
28266;SDS011;15525;45.568;5.448;2023-10-31T00:01:08;10.30;;;5.93;;
28266;SDS011;15525;45.568;5.448;2023-10-31T00:03:33;9.75;;;6.03;;
28266;SDS011;15525;45.568;5.448;2023-10-31T00:05:59;8.02;;;5.57;;
28266;SDS011;15525;45.568;5.448;2023-10-31T00:08:25;10.73;;;6.32;;
28266;SDS011;15525;45.568;5.448;2023-10-31T00:10:51;10.38;;;6.57;;
28266;SDS011;15525;45.568;5.448;2023-10-31T00:13:16;10.93;;;6.10;;
28266;SDS011;15525;45.568;5.448;2023-10-31T00:15:41;13.27;;;6.28;;
28266;SDS011;15525;45.568;5.448;2023-10-31T00:18:07;10.63;;;6.53;;
28266;SDS011;15525;45.568;5.448;2023-10-31T00:20:32;18.05;;;6.82;;
28266;SDS011;15525;45.568;5.448;2023-10-31T00:22:58;10.73;;;6.22;;
28266;SDS011;15525;45.568;5.448;2023-10-31T00:25:23;10.23;;;6.25;;
28266;SDS011;15525;45.568;5.448;2023-10-31T00:27:48;10.82;;;6.25;;
28266;SDS011;15525;45.568;5.448;2023-10-31T00:30:14;13.02;;;6.70;;
28266;SDS011;15525;45.568;5.448;2023-10-31T00:32:39;11.65;;;6.97;;
28266;SDS011;15525;45.568;5.448;2023-10-31T00:35:05;11.23;;;6.70;;
28266;SDS011;15525;45.568;5.448;2023-10-31T00:37:30;9.65;;;6.20;;
28266;SDS011;15525;45.568;5.448;2023-10-31T00:39:56;11.45;;;6.60;;
28266;SDS011;15525;45.568;5.448;2023-10-31T00:42:21;11.63;;;6.80;;
28266;SDS011;15525;45.568;5.448;2023-10-31T00:44:46;7.65;;;5.40;;
28266;SDS011;15525;45.568;5.448;2023-10-31T00:47:12;11.93;;;5.45;;
28266;SDS011;15525;45.568;5.448;2023-10-31T00:49:37;11.63;;;5.97;;
28266;SDS011;15525;45.568;5.448;2023-10-31T00:52:03;12.02;;;5.95;;
28266;SDS011;15525;45.568;5.448;2023-10-31T00:54:28;13.20;;;6.15;;
28266;SDS011;15525;45.568;5.448;2023-10-31T00:56:54;9.57;;;5.82;;
28266;SDS011;15525;45.568;5.448;2023-10-31T00:59:19;10.30;;;6.22;;
28266;SDS011;15525;45.568;5.448;2023-10-31T01:01:45;11.98;;;6.38;;
28266;SDS011;15525;45.568;5.448;2023-10-31T01:04:10;13.52;;;7.05;;
28266;SDS011;15525;45.568;5.448;2023-10-31T01:06:42;12.70;;;7.28;;
28266;SDS011;15525;45.568;5.448;2023-10-31T01:09:08;15.50;;;7.45;;
28266;SDS011;15525;45.568;5.448;2023-10-31T01:11:34;11.35;;;6.07;;
28266;SDS011;15525;45.568;5.448;2023-10-31T01:13:59;9.13;;;6.50;;
28266;SDS011;15525;45.568;5.448;2023-10-31T01:16:25;11.93;;;6.45;;
28266;SDS011;15525;45.568;5.448;2023-10-31T01:18:50;9.68;;;5.80;;
28266;SDS011;15525;45.568;5.448;2023-10-31T01:21:16;11.25;;;6.72;;
28266;SDS011;15525;45.568;5.448;2023-10-31T01:23:41;10.80;;;6.25;;
28266;SDS011;15525;45.568;5.448;2023-10-31T01:26:06;12.50;;;6.72;;
28266;SDS011;15525;45.568;5.448;2023-10-31T01:28:32;11.73;;;6.47;;
28266;SDS011;15525;45.568;5.448;2023-10-31T01:30:57;13.95;;;7.28;;
28266;SDS011;15525;45.568;5.448;2023-10-31T01:33:22;25.88;;;6.82;;
28266;SDS011;15525;45.568;5.448;2023-10-31T01:35:48;10.25;;;6.18;;
28266;SDS011;15525;45.568;5.448;2023-10-31T01:38:13;9.93;;;5.85;;
28266;SDS011;15525;45.568;5.448;2023-10-31T01:40:39;12.10;;;5.68;;
28266;SDS011;15525;45.568;5.448;2023-10-31T01:43:04;9.48;;;5.63;;
28266;SDS011;15525;45.568;5.448;2023-10-31T01:45:30;9.93;;;6.32;;
28266;SDS011;15525;45.568;5.448;2023-10-31T01:47:55;9.45;;;6.07;;
28266;SDS011;15525;45.568;5.448;2023-10-31T01:50:21;11.63;;;6.45;;
28266;SDS011;15525;45.568;5.448;2023-10-31T01:52:46;10.88;;;6.82;;
28266;SDS011;15525;45.568;5.448;2023-10-31T01:55:12;13.57;;;6.40;;
28266;SDS011;15525;45.568;5.448;2023-10-31T01:57:38;14.77;;;6.88;;
28266;SDS011;15525;45.568;5.448;2023-10-31T02:00:05;12.50;;;6.85;;
28266;SDS011;15525;45.568;5.448;2023-10-31T02:02:31;11.68;;;6.75;;
28266;SDS011;15525;45.568;5.448;2023-10-31T02:05:00;12.75;;;6.30;;
28266;SDS011;15525;45.568;5.448;2023-10-31T02:07:25;11.95;;;6.97;;
28266;SDS011;15525;45.568;5.448;2023-10-31T02:09:50;11.55;;;6.93;;
28266;SDS011;15525;45.568;5.448;2023-10-31T02:12:35;9.63;;;6.50;;
28266;SDS011;15525;45.568;5.448;2023-10-31T02:15:02;11.82;;;6.50;;
28266;SDS011;15525;45.568;5.448;2023-10-31T02:17:28;9.93;;;6.20;;
28266;SDS011;15525;45.568;5.448;2023-10-31T02:19:54;11.43;;;6.00;;
28266;SDS011;15525;45.568;5.448;2023-10-31T02:22:20;12.18;;;6.35;;
28266;SDS011;15525;45.568;5.448;2023-10-31T02:24:45;11.23;;;5.60;;
28266;SDS011;15525;45.568;5.448;2023-10-31T02:27:11;9.63;;;6.57;;
28266;SDS011;15525;45.568;5.448;2023-10-31T02:29:36;8.90;;;5.75;;
28266;SDS011;15525;45.568;5.448;2023-10-31T02:32:03;14.57;;;7.38;;
28266;SDS011;15525;45.568;5.448;2023-10-31T02:34:29;11.90;;;5.60;;
28266;SDS011;15525;45.568;5.448;2023-10-31T02:36:55;13.95;;;7.75;;
28266;SDS011;15525;45.568;5.448;2023-10-31T02:39:20;13.32;;;8.05;;
28266;SDS011;15525;45.568;5.448;2023-10-31T02:41:45;12.95;;;6.75;;
28266;SDS011;15525;45.568;5.448;2023-10-31T02:44:11;9.68;;;5.68;;
28266;SDS011;15525;45.568;5.448;2023-10-31T02:46:39;9.07;;;4.93;;
28266;SDS011;15525;45.568;5.448;2023-10-31T02:49:05;8.45;;;5.05;;
28266;SDS011;15525;45.568;5.448;2023-10-31T02:51:30;8.70;;;5.13;;
28266;SDS011;15525;45.568;5.448;2023-10-31T02:53:55;8.50;;;4.80;;
28266;SDS011;15525;45.568;5.448;2023-10-31T02:56:21;7.90;;;5.10;;
28266;SDS011;15525;45.568;5.448;2023-10-31T02:58:46;9.45;;;5.13;;
28266;SDS011;15525;45.568;5.448;2023-10-31T03:01:11;11.25;;;5.35;;
28266;SDS011;15525;45.568;5.448;2023-10-31T03:03:37;9.95;;;4.97;;
28266;SDS011;15525;45.568;5.448;2023-10-31T03:06:04;9.43;;;5.78;;
28266;SDS011;15525;45.568;5.448;2023-10-31T03:08:30;7.68;;;5.40;;
28266;SDS011;15525;45.568;5.448;2023-10-31T03:10:55;9.07;;;5.60;;
28266;SDS011;15525;45.568;5.448;2023-10-31T03:13:21;10.43;;;5.53;;
28266;SDS011;15525;45.568;5.448;2023-10-31T03:15:46;9.23;;;5.60;;
28266;SDS011;15525;45.568;5.448;2023-10-31T03:18:12;22.75;;;6.45;;
28266;SDS011;15525;45.568;5.448;2023-10-31T03:20:39;9.30;;;5.50;;
28266;SDS011;15525;45.568;5.448;2023-10-31T03:23:05;9.90;;;5.30;;
28266;SDS011;15525;45.568;5.448;2023-10-31T03:25:30;10.05;;;5.90;;
28266;SDS011;15525;45.568;5.448;2023-10-31T03:27:55;7.68;;;5.10;;
28266;SDS011;15525;45.568;5.448;2023-10-31T03:30:21;8.20;;;5.13;;
28266;SDS011;15525;45.568;5.448;2023-10-31T03:32:47;7.55;;;4.88;;
28266;SDS011;15525;45.568;5.448;2023-10-31T03:35:12;5.72;;;3.90;;
28266;SDS011;15525;45.568;5.448;2023-10-31T03:37:37;8.73;;;4.10;;
28266;SDS011;15525;45.568;5.448;2023-10-31T03:40:07;7.32;;;4.07;;
28266;SDS011;15525;45.568;5.448;2023-10-31T03:42:33;5.95;;;3.75;;
28266;SDS011;15525;45.568;5.448;2023-10-31T03:44:59;5.38;;;3.35;;
28266;SDS011;15525;45.568;5.448;2023-10-31T03:47:24;6.28;;;3.38;;
28266;SDS011;15525;45.568;5.448;2023-10-31T03:49:49;6.68;;;4.03;;
28266;SDS011;15525;45.568;5.448;2023-10-31T03:52:15;6.43;;;3.65;;
28266;SDS011;15525;45.568;5.448;2023-10-31T03:54:40;8.85;;;4.20;;
28266;SDS011;15525;45.568;5.448;2023-10-31T03:57:05;6.97;;;3.90;;
28266;SDS011;15525;45.568;5.448;2023-10-31T03:59:31;6.30;;;3.80;;
28266;SDS011;15525;45.568;5.448;2023-10-31T04:01:56;9.32;;;4.55;;
28266;SDS011;15525;45.568;5.448;2023-10-31T04:04:22;7.35;;;4.32;;
28266;SDS011;15525;45.568;5.448;2023-10-31T04:06:47;8.10;;;4.68;;
28266;SDS011;15525;45.568;5.448;2023-10-31T04:09:12;7.32;;;4.15;;
28266;SDS011;15525;45.568;5.448;2023-10-31T04:11:38;6.65;;;3.38;;
28266;SDS011;15525;45.568;5.448;2023-10-31T04:14:04;9.48;;;4.53;;
28266;SDS011;15525;45.568;5.448;2023-10-31T04:16:30;8.77;;;4.60;;
28266;SDS011;15525;45.568;5.448;2023-10-31T04:18:56;7.03;;;4.75;;
28266;SDS011;15525;45.568;5.448;2023-10-31T04:21:21;13.88;;;5.32;;
28266;SDS011;15525;45.568;5.448;2023-10-31T04:23:47;11.13;;;4.90;;
28266;SDS011;15525;45.568;5.448;2023-10-31T04:26:12;9.00;;;5.22;;
28266;SDS011;15525;45.568;5.448;2023-10-31T04:28:38;9.52;;;4.47;;
28266;SDS011;15525;45.568;5.448;2023-10-31T04:31:04;8.10;;;4.30;;
28266;SDS011;15525;45.568;5.448;2023-10-31T04:33:29;11.02;;;3.38;;
28266;SDS011;15525;45.568;5.448;2023-10-31T04:35:55;6.40;;;3.38;;
28266;SDS011;15525;45.568;5.448;2023-10-31T04:38:20;9.18;;;3.28;;
28266;SDS011;15525;45.568;5.448;2023-10-31T04:40:45;4.60;;;3.20;;
28266;SDS011;15525;45.568;5.448;2023-10-31T04:43:11;6.93;;;2.55;;
28266;SDS011;15525;45.568;5.448;2023-10-31T04:45:37;4.85;;;2.78;;
28266;SDS011;15525;45.568;5.448;2023-10-31T04:48:02;5.05;;;3.08;;
28266;SDS011;15525;45.568;5.448;2023-10-31T04:50:28;3.80;;;2.50;;
28266;SDS011;15525;45.568;5.448;2023-10-31T04:52:53;4.60;;;2.80;;
28266;SDS011;15525;45.568;5.448;2023-10-31T04:55:18;3.70;;;1.58;;
28266;SDS011;15525;45.568;5.448;2023-10-31T04:57:44;2.47;;;1.38;;
28266;SDS011;15525;45.568;5.448;2023-10-31T05:00:09;3.50;;;1.77;;
28266;SDS011;15525;45.568;5.448;2023-10-31T05:02:35;2.42;;;1.50;;
28266;SDS011;15525;45.568;5.448;2023-10-31T05:05:01;2.92;;;1.25;;
28266;SDS011;15525;45.568;5.448;2023-10-31T05:07:26;6.63;;;1.60;;
28266;SDS011;15525;45.568;5.448;2023-10-31T05:09:51;1.98;;;1.30;;
28266;SDS011;15525;45.568;5.448;2023-10-31T05:12:17;3.03;;;1.48;;
28266;SDS011;15525;45.568;5.448;2023-10-31T05:14:42;2.28;;;1.42;;
28266;SDS011;15525;45.568;5.448;2023-10-31T05:17:08;4.95;;;1.42;;
28266;SDS011;15525;45.568;5.448;2023-10-31T05:19:33;3.63;;;2.30;;
28266;SDS011;15525;45.568;5.448;2023-10-31T05:21:59;4.97;;;2.25;;
28266;SDS011;15525;45.568;5.448;2023-10-31T05:24:24;6.55;;;2.40;;
28266;SDS011;15525;45.568;5.448;2023-10-31T05:26:49;3.80;;;2.58;;
28266;SDS011;15525;45.568;5.448;2023-10-31T05:29:15;5.18;;;3.00;;
28266;SDS011;15525;45.568;5.448;2023-10-31T05:31:40;5.28;;;2.90;;
28266;SDS011;15525;45.568;5.448;2023-10-31T05:34:06;4.60;;;2.92;;
28266;SDS011;15525;45.568;5.448;2023-10-31T05:36:32;4.43;;;2.53;;
28266;SDS011;15525;45.568;5.448;2023-10-31T05:38:57;5.68;;;2.72;;
28266;SDS011;15525;45.568;5.448;2023-10-31T05:41:23;4.82;;;2.80;;
28266;SDS011;15525;45.568;5.448;2023-10-31T05:43:49;6.35;;;2.83;;
28266;SDS011;15525;45.568;5.448;2023-10-31T05:46:14;6.82;;;3.00;;
28266;SDS011;15525;45.568;5.448;2023-10-31T05:48:40;4.82;;;2.47;;
28266;SDS011;15525;45.568;5.448;2023-10-31T05:51:13;5.35;;;2.60;;
28266;SDS011;15525;45.568;5.448;2023-10-31T05:53:40;3.83;;;2.55;;
28266;SDS011;15525;45.568;5.448;2023-10-31T05:56:07;4.78;;;2.60;;
28266;SDS011;15525;45.568;5.448;2023-10-31T05:58:33;4.85;;;2.30;;
28266;SDS011;15525;45.568;5.448;2023-10-31T06:00:58;5.85;;;2.60;;
28266;SDS011;15525;45.568;5.448;2023-10-31T06:03:24;3.47;;;1.88;;
28266;SDS011;15525;45.568;5.448;2023-10-31T06:05:49;6.53;;;2.20;;
28266;SDS011;15525;45.568;5.448;2023-10-31T06:08:15;3.13;;;2.00;;
28266;SDS011;15525;45.568;5.448;2023-10-31T06:10:40;3.63;;;1.80;;
28266;SDS011;15525;45.568;5.448;2023-10-31T06:13:06;4.30;;;2.25;;
28266;SDS011;15525;45.568;5.448;2023-10-31T06:15:31;3.72;;;2.30;;
28266;SDS011;15525;45.568;5.448;2023-10-31T06:17:57;3.05;;;1.83;;
28266;SDS011;15525;45.568;5.448;2023-10-31T06:20:22;4.82;;;2.42;;
28266;SDS011;15525;45.568;5.448;2023-10-31T06:22:48;4.35;;;2.83;;
28266;SDS011;15525;45.568;5.448;2023-10-31T06:25:14;7.30;;;2.80;;
28266;SDS011;15525;45.568;5.448;2023-10-31T06:27:39;7.07;;;3.10;;
28266;SDS011;15525;45.568;5.448;2023-10-31T06:30:05;8.10;;;4.50;;
28266;SDS011;15525;45.568;5.448;2023-10-31T06:32:31;7.68;;;3.95;;
28266;SDS011;15525;45.568;5.448;2023-10-31T06:34:56;7.85;;;4.00;;
28266;SDS011;15525;45.568;5.448;2023-10-31T06:37:21;6.07;;;3.47;;
28266;SDS011;15525;45.568;5.448;2023-10-31T06:39:47;5.70;;;3.50;;
28266;SDS011;15525;45.568;5.448;2023-10-31T06:42:12;5.65;;;3.17;;
28266;SDS011;15525;45.568;5.448;2023-10-31T06:44:38;6.15;;;3.75;;
28266;SDS011;15525;45.568;5.448;2023-10-31T06:47:03;3.70;;;2.60;;
28266;SDS011;15525;45.568;5.448;2023-10-31T06:49:29;5.97;;;2.35;;
28266;SDS011;15525;45.568;5.448;2023-10-31T06:51:55;1.63;;;1.30;;
28266;SDS011;15525;45.568;5.448;2023-10-31T06:54:21;2.63;;;1.40;;
28266;SDS011;15525;45.568;5.448;2023-10-31T06:56:47;1.63;;;1.40;;
28266;SDS011;15525;45.568;5.448;2023-10-31T06:59:12;3.58;;;1.35;;
28266;SDS011;15525;45.568;5.448;2023-10-31T07:01:37;3.80;;;1.20;;
28266;SDS011;15525;45.568;5.448;2023-10-31T07:04:03;2.65;;;1.30;;
28266;SDS011;15525;45.568;5.448;2023-10-31T07:06:29;2.30;;;1.27;;
28266;SDS011;15525;45.568;5.448;2023-10-31T07:08:54;2.53;;;1.25;;
28266;SDS011;15525;45.568;5.448;2023-10-31T07:11:19;2.60;;;1.10;;
28266;SDS011;15525;45.568;5.448;2023-10-31T07:13:45;3.20;;;1.30;;
28266;SDS011;15525;45.568;5.448;2023-10-31T07:16:10;3.00;;;1.23;;
28266;SDS011;15525;45.568;5.448;2023-10-31T07:18:35;2.67;;;1.30;;
28266;SDS011;15525;45.568;5.448;2023-10-31T07:21:01;2.75;;;1.70;;
28266;SDS011;15525;45.568;5.448;2023-10-31T07:23:26;2.30;;;1.23;;
28266;SDS011;15525;45.568;5.448;2023-10-31T07:25:52;2.95;;;1.30;;
28266;SDS011;15525;45.568;5.448;2023-10-31T07:28:17;1.88;;;1.10;;
28266;SDS011;15525;45.568;5.448;2023-10-31T07:30:43;4.97;;;1.50;;
28266;SDS011;15525;45.568;5.448;2023-10-31T07:33:09;3.72;;;1.60;;
28266;SDS011;15525;45.568;5.448;2023-10-31T07:35:34;3.88;;;1.60;;
28266;SDS011;15525;45.568;5.448;2023-10-31T07:37:59;2.60;;;1.42;;
28266;SDS011;15525;45.568;5.448;2023-10-31T07:40:25;3.30;;;1.30;;
28266;SDS011;15525;45.568;5.448;2023-10-31T07:42:50;3.28;;;1.13;;
28266;SDS011;15525;45.568;5.448;2023-10-31T07:45:16;3.47;;;1.30;;
28266;SDS011;15525;45.568;5.448;2023-10-31T07:47:41;4.22;;;1.35;;
28266;SDS011;15525;45.568;5.448;2023-10-31T07:50:07;3.15;;;1.63;;
28266;SDS011;15525;45.568;5.448;2023-10-31T07:52:32;4.93;;;1.35;;
28266;SDS011;15525;45.568;5.448;2023-10-31T07:54:58;2.45;;;1.25;;
28266;SDS011;15525;45.568;5.448;2023-10-31T07:57:23;2.35;;;1.35;;
28266;SDS011;15525;45.568;5.448;2023-10-31T07:59:48;3.80;;;1.35;;
28266;SDS011;15525;45.568;5.448;2023-10-31T08:02:14;2.25;;;1.30;;
28266;SDS011;15525;45.568;5.448;2023-10-31T08:04:39;4.85;;;1.40;;
28266;SDS011;15525;45.568;5.448;2023-10-31T08:07:05;5.05;;;1.60;;
28266;SDS011;15525;45.568;5.448;2023-10-31T08:09:30;2.90;;;1.38;;
28266;SDS011;15525;45.568;5.448;2023-10-31T08:11:55;3.75;;;1.80;;
28266;SDS011;15525;45.568;5.448;2023-10-31T08:14:21;3.65;;;1.95;;
28266;SDS011;15525;45.568;5.448;2023-10-31T08:16:47;3.88;;;1.63;;
28266;SDS011;15525;45.568;5.448;2023-10-31T08:19:12;3.92;;;1.65;;
28266;SDS011;15525;45.568;5.448;2023-10-31T08:21:39;3.38;;;1.48;;
28266;SDS011;15525;45.568;5.448;2023-10-31T08:24:04;3.33;;;1.48;;
28266;SDS011;15525;45.568;5.448;2023-10-31T08:26:31;4.35;;;1.45;;
28266;SDS011;15525;45.568;5.448;2023-10-31T08:28:57;4.35;;;2.05;;
28266;SDS011;15525;45.568;5.448;2023-10-31T08:31:22;3.30;;;1.48;;
28266;SDS011;15525;45.568;5.448;2023-10-31T08:33:48;6.38;;;2.00;;
28266;SDS011;15525;45.568;5.448;2023-10-31T08:36:13;4.20;;;1.55;;
28266;SDS011;15525;45.568;5.448;2023-10-31T08:38:39;3.40;;;1.40;;
28266;SDS011;15525;45.568;5.448;2023-10-31T08:41:04;3.75;;;1.40;;
28266;SDS011;15525;45.568;5.448;2023-10-31T08:43:30;4.28;;;1.60;;
28266;SDS011;15525;45.568;5.448;2023-10-31T08:45:55;2.63;;;1.35;;
28266;SDS011;15525;45.568;5.448;2023-10-31T08:48:21;2.50;;;1.33;;
28266;SDS011;15525;45.568;5.448;2023-10-31T08:50:46;1.80;;;1.30;;
28266;SDS011;15525;45.568;5.448;2023-10-31T08:53:11;3.53;;;1.20;;
28266;SDS011;15525;45.568;5.448;2023-10-31T08:55:37;3.00;;;1.40;;
28266;SDS011;15525;45.568;5.448;2023-10-31T08:58:03;3.13;;;1.55;;
28266;SDS011;15525;45.568;5.448;2023-10-31T09:00:28;3.80;;;1.63;;
28266;SDS011;15525;45.568;5.448;2023-10-31T09:02:54;2.22;;;1.30;;
28266;SDS011;15525;45.568;5.448;2023-10-31T09:05:19;2.35;;;1.20;;
28266;SDS011;15525;45.568;5.448;2023-10-31T09:07:45;1.58;;;1.33;;
28266;SDS011;15525;45.568;5.448;2023-10-31T09:10:11;3.47;;;1.10;;
28266;SDS011;15525;45.568;5.448;2023-10-31T09:12:37;2.63;;;1.10;;
28266;SDS011;15525;45.568;5.448;2023-10-31T09:15:03;2.72;;;1.10;;
28266;SDS011;15525;45.568;5.448;2023-10-31T09:17:29;2.97;;;1.20;;
28266;SDS011;15525;45.568;5.448;2023-10-31T09:19:54;3.05;;;1.25;;
28266;SDS011;15525;45.568;5.448;2023-10-31T09:22:20;6.00;;;1.30;;
28266;SDS011;15525;45.568;5.448;2023-10-31T09:24:46;2.92;;;1.27;;
28266;SDS011;15525;45.568;5.448;2023-10-31T09:27:11;4.65;;;1.50;;
28266;SDS011;15525;45.568;5.448;2023-10-31T09:29:36;6.18;;;1.70;;
28266;SDS011;15525;45.568;5.448;2023-10-31T09:32:03;2.20;;;1.38;;
28266;SDS011;15525;45.568;5.448;2023-10-31T09:34:30;2.65;;;1.23;;
28266;SDS011;15525;45.568;5.448;2023-10-31T09:36:55;3.05;;;1.60;;
28266;SDS011;15525;45.568;5.448;2023-10-31T09:39:21;2.63;;;1.50;;
28266;SDS011;15525;45.568;5.448;2023-10-31T09:41:48;2.35;;;1.30;;
28266;SDS011;15525;45.568;5.448;2023-10-31T09:44:13;2.00;;;1.25;;
28266;SDS011;15525;45.568;5.448;2023-10-31T09:46:38;3.00;;;1.00;;
28266;SDS011;15525;45.568;5.448;2023-10-31T09:49:05;2.33;;;0.95;;
28266;SDS011;15525;45.568;5.448;2023-10-31T09:51:32;3.70;;;1.23;;
28266;SDS011;15525;45.568;5.448;2023-10-31T09:53:59;3.67;;;1.17;;
28266;SDS011;15525;45.568;5.448;2023-10-31T09:56:27;1.80;;;1.02;;
28266;SDS011;15525;45.568;5.448;2023-10-31T09:58:59;3.03;;;1.23;;
28266;SDS011;15525;45.568;5.448;2023-10-31T10:01:25;2.03;;;1.10;;
28266;SDS011;15525;45.568;5.448;2023-10-31T10:03:50;2.20;;;1.15;;
28266;SDS011;15525;45.568;5.448;2023-10-31T10:06:16;5.00;;;1.20;;
28266;SDS011;15525;45.568;5.448;2023-10-31T10:08:46;2.70;;;1.20;;
28266;SDS011;15525;45.568;5.448;2023-10-31T10:11:11;3.03;;;1.00;;
28266;SDS011;15525;45.568;5.448;2023-10-31T10:13:37;2.67;;;0.90;;
28266;SDS011;15525;45.568;5.448;2023-10-31T10:16:02;1.33;;;0.80;;
28266;SDS011;15525;45.568;5.448;2023-10-31T10:18:28;1.50;;;0.82;;
28266;SDS011;15525;45.568;5.448;2023-10-31T10:20:59;1.52;;;0.98;;
28266;SDS011;15525;45.568;5.448;2023-10-31T10:23:26;2.40;;;0.90;;
28266;SDS011;15525;45.568;5.448;2023-10-31T10:25:55;2.63;;;0.70;;
28266;SDS011;15525;45.568;5.448;2023-10-31T10:28:21;1.67;;;1.00;;
28266;SDS011;15525;45.568;5.448;2023-10-31T10:30:49;1.50;;;0.90;;
28266;SDS011;15525;45.568;5.448;2023-10-31T10:33:16;3.03;;;1.02;;
28266;SDS011;15525;45.568;5.448;2023-10-31T10:35:42;2.72;;;0.98;;
28266;SDS011;15525;45.568;5.448;2023-10-31T10:38:12;1.27;;;0.90;;
28266;SDS011;15525;45.568;5.448;2023-10-31T10:40:40;3.40;;;0.90;;
28266;SDS011;15525;45.568;5.448;2023-10-31T10:43:13;3.65;;;0.80;;
28266;SDS011;15525;45.568;5.448;2023-10-31T10:45:52;1.27;;;0.90;;
28266;SDS011;15525;45.568;5.448;2023-10-31T10:48:20;1.17;;;1.00;;
28266;SDS011;15525;45.568;5.448;2023-10-31T10:50:46;1.58;;;0.90;;
28266;SDS011;15525;45.568;5.448;2023-10-31T10:53:24;2.17;;;0.93;;
28266;SDS011;15525;45.568;5.448;2023-10-31T10:55:59;5.07;;;1.10;;
28266;SDS011;15525;45.568;5.448;2023-10-31T10:58:37;2.80;;;0.98;;
28266;SDS011;15525;45.568;5.448;2023-10-31T11:01:04;2.72;;;0.80;;
28266;SDS011;15525;45.568;5.448;2023-10-31T11:03:30;2.25;;;0.90;;
28266;SDS011;15525;45.568;5.448;2023-10-31T11:05:57;0.93;;;0.70;;
28266;SDS011;15525;45.568;5.448;2023-10-31T11:08:23;2.30;;;0.90;;
28266;SDS011;15525;45.568;5.448;2023-10-31T11:10:50;1.98;;;0.90;;
28266;SDS011;15525;45.568;5.448;2023-10-31T11:13:16;2.20;;;0.60;;
28266;SDS011;15525;45.568;5.448;2023-10-31T11:15:42;0.80;;;0.80;;
28266;SDS011;15525;45.568;5.448;2023-10-31T11:18:09;1.38;;;0.77;;
28266;SDS011;15525;45.568;5.448;2023-10-31T11:20:35;1.90;;;0.90;;
28266;SDS011;15525;45.568;5.448;2023-10-31T11:23:02;1.10;;;0.70;;
28266;SDS011;15525;45.568;5.448;2023-10-31T11:25:31;0.85;;;0.60;;
28266;SDS011;15525;45.568;5.448;2023-10-31T11:27:57;1.27;;;0.70;;
28266;SDS011;15525;45.568;5.448;2023-10-31T11:30:36;2.22;;;0.80;;
28266;SDS011;15525;45.568;5.448;2023-10-31T11:33:02;0.80;;;0.60;;
28266;SDS011;15525;45.568;5.448;2023-10-31T11:35:32;2.70;;;0.60;;
28266;SDS011;15525;45.568;5.448;2023-10-31T11:38:02;2.00;;;0.70;;
28266;SDS011;15525;45.568;5.448;2023-10-31T11:40:32;1.23;;;0.60;;
28266;SDS011;15525;45.568;5.448;2023-10-31T11:43:00;1.35;;;0.52;;
28266;SDS011;15525;45.568;5.448;2023-10-31T11:45:35;2.40;;;0.77;;
28266;SDS011;15525;45.568;5.448;2023-10-31T11:48:02;0.90;;;0.63;;
28266;SDS011;15525;45.568;5.448;2023-10-31T11:50:29;2.00;;;0.55;;
28266;SDS011;15525;45.568;5.448;2023-10-31T11:53:14;1.15;;;0.40;;
28266;SDS011;15525;45.568;5.448;2023-10-31T11:55:42;0.88;;;0.60;;
28266;SDS011;15525;45.568;5.448;2023-10-31T11:58:12;1.52;;;0.80;;
28266;SDS011;15525;45.568;5.448;2023-10-31T12:00:37;1.67;;;0.65;;
28266;SDS011;15525;45.568;5.448;2023-10-31T12:03:03;3.53;;;0.80;;
28266;SDS011;15525;45.568;5.448;2023-10-31T12:05:28;2.53;;;0.60;;
28266;SDS011;15525;45.568;5.448;2023-10-31T12:07:54;1.00;;;0.80;;
28266;SDS011;15525;45.568;5.448;2023-10-31T12:10:28;0.88;;;0.70;;
28266;SDS011;15525;45.568;5.448;2023-10-31T12:12:57;1.10;;;0.80;;
28266;SDS011;15525;45.568;5.448;2023-10-31T12:15:23;1.05;;;0.95;;
28266;SDS011;15525;45.568;5.448;2023-10-31T12:17:50;2.28;;;1.30;;
28266;SDS011;15525;45.568;5.448;2023-10-31T12:20:16;2.38;;;1.20;;
28266;SDS011;15525;45.568;5.448;2023-10-31T12:22:42;1.20;;;0.93;;
28266;SDS011;15525;45.568;5.448;2023-10-31T12:25:08;2.45;;;1.20;;
28266;SDS011;15525;45.568;5.448;2023-10-31T12:27:50;2.88;;;1.10;;
28266;SDS011;15525;45.568;5.448;2023-10-31T12:30:20;1.10;;;0.70;;
28266;SDS011;15525;45.568;5.448;2023-10-31T12:32:53;1.80;;;0.80;;
28266;SDS011;15525;45.568;5.448;2023-10-31T12:35:21;2.85;;;1.00;;
28266;SDS011;15525;45.568;5.448;2023-10-31T12:37:48;1.92;;;0.70;;
28266;SDS011;15525;45.568;5.448;2023-10-31T12:40:18;1.10;;;0.70;;
28266;SDS011;15525;45.568;5.448;2023-10-31T12:42:45;2.38;;;1.13;;
28266;SDS011;15525;45.568;5.448;2023-10-31T12:45:13;0.98;;;0.70;;
28266;SDS011;15525;45.568;5.448;2023-10-31T12:47:39;2.45;;;0.80;;
28266;SDS011;15525;45.568;5.448;2023-10-31T12:52:50;2.25;;;0.70;;
28266;SDS011;15525;45.568;5.448;2023-10-31T12:55:24;0.90;;;0.60;;
28266;SDS011;15525;45.568;5.448;2023-10-31T12:57:50;1.38;;;0.80;;
28266;SDS011;15525;45.568;5.448;2023-10-31T13:00:19;0.88;;;0.70;;
28266;SDS011;15525;45.568;5.448;2023-10-31T13:02:52;1.00;;;0.80;;
28266;SDS011;15525;45.568;5.448;2023-10-31T13:05:24;1.63;;;0.70;;
28266;SDS011;15525;45.568;5.448;2023-10-31T13:07:53;2.13;;;0.60;;
28266;SDS011;15525;45.568;5.448;2023-10-31T13:10:21;1.15;;;0.90;;
28266;SDS011;15525;45.568;5.448;2023-10-31T13:12:47;1.77;;;0.90;;
28266;SDS011;15525;45.568;5.448;2023-10-31T13:15:16;1.75;;;0.80;;
28266;SDS011;15525;45.568;5.448;2023-10-31T13:17:43;1.35;;;0.80;;
28266;SDS011;15525;45.568;5.448;2023-10-31T13:20:10;4.60;;;1.20;;
28266;SDS011;15525;45.568;5.448;2023-10-31T13:22:36;1.00;;;0.70;;
28266;SDS011;15525;45.568;5.448;2023-10-31T13:25:03;1.45;;;0.55;;
28266;SDS011;15525;45.568;5.448;2023-10-31T13:27:39;2.25;;;0.60;;
28266;SDS011;15525;45.568;5.448;2023-10-31T13:30:06;1.88;;;0.90;;
28266;SDS011;15525;45.568;5.448;2023-10-31T13:32:34;1.80;;;0.82;;
28266;SDS011;15525;45.568;5.448;2023-10-31T13:35:00;1.67;;;0.80;;
28266;SDS011;15525;45.568;5.448;2023-10-31T13:37:25;2.30;;;0.90;;
28266;SDS011;15525;45.568;5.448;2023-10-31T13:39:51;1.23;;;0.77;;
28266;SDS011;15525;45.568;5.448;2023-10-31T13:42:16;0.90;;;0.70;;
28266;SDS011;15525;45.568;5.448;2023-10-31T13:44:42;1.25;;;0.80;;
28266;SDS011;15525;45.568;5.448;2023-10-31T13:47:08;2.05;;;0.70;;
28266;SDS011;15525;45.568;5.448;2023-10-31T13:49:34;1.25;;;0.70;;
28266;SDS011;15525;45.568;5.448;2023-10-31T13:52:00;3.80;;;0.82;;
28266;SDS011;15525;45.568;5.448;2023-10-31T13:54:25;1.65;;;0.73;;
28266;SDS011;15525;45.568;5.448;2023-10-31T13:56:51;1.75;;;0.70;;
28266;SDS011;15525;45.568;5.448;2023-10-31T13:59:17;1.25;;;1.00;;
28266;SDS011;15525;45.568;5.448;2023-10-31T14:01:45;3.33;;;1.88;;
28266;SDS011;15525;45.568;5.448;2023-10-31T14:04:11;2.10;;;1.20;;
28266;SDS011;15525;45.568;5.448;2023-10-31T14:06:38;1.90;;;0.90;;
28266;SDS011;15525;45.568;5.448;2023-10-31T14:09:04;1.38;;;0.80;;
28266;SDS011;15525;45.568;5.448;2023-10-31T14:11:32;1.00;;;0.50;;
28266;SDS011;15525;45.568;5.448;2023-10-31T14:13:59;3.95;;;1.00;;
28266;SDS011;15525;45.568;5.448;2023-10-31T14:16:28;1.65;;;0.70;;
28266;SDS011;15525;45.568;5.448;2023-10-31T14:18:55;1.50;;;0.68;;
28266;SDS011;15525;45.568;5.448;2023-10-31T14:21:20;2.97;;;0.80;;
28266;SDS011;15525;45.568;5.448;2023-10-31T14:23:46;1.63;;;0.75;;
28266;SDS011;15525;45.568;5.448;2023-10-31T14:26:18;1.10;;;0.80;;
28266;SDS011;15525;45.568;5.448;2023-10-31T14:28:47;2.08;;;1.00;;
28266;SDS011;15525;45.568;5.448;2023-10-31T14:31:13;1.60;;;1.10;;
28266;SDS011;15525;45.568;5.448;2023-10-31T14:33:39;2.00;;;1.08;;
28266;SDS011;15525;45.568;5.448;2023-10-31T14:36:05;1.17;;;0.95;;
28266;SDS011;15525;45.568;5.448;2023-10-31T14:38:31;1.83;;;1.00;;
28266;SDS011;15525;45.568;5.448;2023-10-31T14:40:56;2.00;;;1.33;;
28266;SDS011;15525;45.568;5.448;2023-10-31T14:43:21;2.97;;;1.60;;